Time;durP1;ratioP1;P1;durP2;ratioP2;P2;SDS_P1;SDS_P2;PMS_P1;PMS_P2;Temp;Humidity;BMP_temperature;BMP_pressure;BME280_temperature;BME280_humidity;BME280_pressure;Samples;Min_cycle;Max_cycle;Signal;HPM_P1;HPM_P2
2021/11/02 00:00:34;;;;;;;49.00;28.13;;;7.30;99.90;;;;;;5272214;28;20238;-73
2021/11/02 00:03:06;;;;;;;51.93;28.73;;;7.30;99.90;;;;;;5272518;28;20207;-73
2021/11/02 00:05:38;;;;;;;53.37;29.17;;;7.20;99.90;;;;;;5272470;28;20204;-73
2021/11/02 00:08:11;;;;;;;49.67;29.10;;;7.10;99.90;;;;;;5273355;28;20191;-72
2021/11/02 00:10:43;;;;;;;55.43;29.30;;;7.10;99.90;;;;;;5256418;28;20204;-72
2021/11/02 00:13:19;;;;;;;53.60;28.50;;;7.00;99.90;;;;;;5258611;28;20192;-71
2021/11/02 00:16:03;;;;;;;53.57;29.73;;;6.90;99.90;;;;;;5273486;28;20194;-72
2021/11/02 00:18:36;;;;;;;49.10;29.03;;;6.90;99.90;;;;;;5255449;28;20196;-71
2021/11/02 00:21:11;;;;;;;50.30;27.47;;;6.80;99.90;;;;;;5254775;28;20302;-72
2021/11/02 00:23:44;;;;;;;51.17;27.80;;;6.70;99.90;;;;;;5255313;28;20208;-70
2021/11/02 00:26:19;;;;;;;54.67;30.13;;;6.70;99.90;;;;;;5272231;28;20204;-72
2021/11/02 00:28:51;;;;;;;49.73;28.93;;;6.60;99.90;;;;;;5272009;28;20215;-71
2021/11/02 00:31:22;;;;;;;51.70;28.20;;;6.50;99.90;;;;;;5237799;28;20529;-71
2021/11/02 00:33:54;;;;;;;50.50;27.87;;;6.50;99.90;;;;;;5272357;28;20212;-72
2021/11/02 00:36:26;;;;;;;45.93;26.67;;;6.40;99.90;;;;;;5271945;28;20223;-72
2021/11/02 00:38:58;;;;;;;47.97;27.77;;;6.30;99.90;;;;;;5254197;28;20199;-71
2021/11/02 00:41:30;;;;;;;55.37;28.60;;;6.30;99.90;;;;;;5237311;28;20244;-72
2021/11/02 00:44:04;;;;;;;52.50;27.37;;;6.20;99.90;;;;;;5272655;28;20196;-73
2021/11/02 00:46:36;;;;;;;53.50;28.77;;;6.20;99.90;;;;;;5274596;28;20200;-72
2021/11/02 00:49:15;;;;;;;49.67;27.77;;;6.10;99.90;;;;;;5256224;28;20228;-71
2021/11/02 00:51:48;;;;;;;52.70;29.93;;;6.10;99.90;;;;;;5253848;28;20644;-70
2021/11/02 00:54:20;;;;;;;58.57;30.30;;;6.00;99.90;;;;;;5271896;28;20474;-72
2021/11/02 00:56:55;;;;;;;57.00;31.03;;;6.00;99.90;;;;;;5237194;28;20200;-70
2021/11/02 00:59:27;;;;;;;60.00;30.67;;;5.90;99.90;;;;;;5271693;28;20600;-74
2021/11/02 01:01:59;;;;;;;59.70;31.77;;;5.90;99.90;;;;;;5253480;28;20484;-72
2021/11/02 01:04:31;;;;;;;56.67;30.90;;;5.90;99.90;;;;;;5237281;28;20261;-72
2021/11/02 01:07:04;;;;;;;62.93;32.77;;;5.80;99.90;;;;;;5271626;28;20528;-72
2021/11/02 01:09:36;;;;;;;63.43;33.37;;;5.80;99.90;;;;;;5271401;28;20203;-71
2021/11/02 01:12:10;;;;;;;63.47;31.83;;;5.70;99.90;;;;;;5253480;28;20207;-71
2021/11/02 01:14:44;;;;;;;63.33;32.13;;;5.70;99.90;;;;;;5271159;28;20188;-70
2021/11/02 01:17:16;;;;;;;56.23;31.10;;;5.60;99.90;;;;;;5271503;28;20222;-71
2021/11/02 01:19:48;;;;;;;59.27;31.63;;;5.60;99.90;;;;;;5275565;28;20227;-70
2021/11/02 01:22:20;;;;;;;54.67;30.53;;;5.60;99.90;;;;;;5254039;28;20207;-72
2021/11/02 01:24:52;;;;;;;60.13;31.47;;;5.50;99.90;;;;;;5253494;28;20200;-74
2021/11/02 01:27:24;;;;;;;54.77;30.20;;;5.50;99.90;;;;;;5236739;28;20204;-68
2021/11/02 01:29:56;;;;;;;55.30;30.20;;;5.50;99.90;;;;;;5270629;28;20208;-75
2021/11/02 01:32:28;;;;;;;57.50;31.93;;;5.50;99.90;;;;;;5252927;28;20219;-72
2021/11/02 01:35:01;;;;;;;61.30;31.03;;;5.40;99.90;;;;;;5253117;28;20212;-72
2021/11/02 01:37:34;;;;;;;59.20;30.97;;;5.40;99.90;;;;;;5252864;28;20204;-72
2021/11/02 01:40:09;;;;;;;57.67;31.13;;;5.40;99.90;;;;;;5253210;28;20258;-70
2021/11/02 01:42:42;;;;;;;60.60;31.13;;;5.40;99.90;;;;;;5270773;28;20184;-70
2021/11/02 01:45:15;;;;;;;58.17;30.60;;;5.30;99.90;;;;;;5270761;28;20287;-70
2021/11/02 01:47:48;;;;;;;52.63;30.33;;;5.30;99.90;;;;;;5253754;28;20603;-72
2021/11/02 01:50:21;;;;;;;58.17;29.53;;;5.30;99.90;;;;;;5273763;28;20212;-74
2021/11/02 01:52:53;;;;;;;59.07;30.30;;;5.30;99.90;;;;;;5272524;28;20204;-71
2021/11/02 01:55:27;;;;;;;51.63;29.13;;;5.30;99.90;;;;;;5271321;28;20211;-71
2021/11/02 01:57:59;;;;;;;54.57;30.03;;;5.30;99.90;;;;;;5270630;28;20217;-72
2021/11/02 02:00:33;;;;;;;57.13;30.87;;;5.30;99.90;;;;;;5270945;28;20579;-75
2021/11/02 02:03:16;;;;;;;51.60;29.87;;;5.30;99.90;;;;;;5270604;28;20218;-72
2021/11/02 02:06:18;;;;;;;54.33;30.07;;;5.30;99.90;;;;;;5253518;28;20215;-72
2021/11/02 02:09:04;;;;;;;56.30;30.90;;;5.30;99.90;;;;;;5272097;28;20224;-72
2021/11/02 02:11:48;;;;;;;54.30;30.00;;;5.20;99.90;;;;;;5271207;28;20207;-72
2021/11/02 02:14:50;;;;;;;55.17;29.30;;;5.20;99.90;;;;;;5271312;28;20207;-70
2021/11/02 02:17:36;;;;;;;56.87;30.30;;;5.20;99.90;;;;;;5236478;28;20233;-71
2021/11/02 02:20:14;;;;;;;55.87;30.00;;;5.20;99.90;;;;;;5271010;28;20245;-71
2021/11/02 02:23:10;;;;;;;56.37;30.13;;;5.20;99.90;;;;;;5256599;28;20553;-72
2021/11/02 02:26:00;;;;;;;59.47;30.50;;;5.20;99.90;;;;;;5271198;28;20232;-71
2021/11/02 02:28:37;;;;;;;56.87;30.40;;;5.10;99.90;;;;;;5270553;28;20199;-72
2021/11/02 02:31:12;;;;;;;57.47;30.43;;;5.10;99.90;;;;;;5252591;28;20204;-72
2021/11/02 02:33:47;;;;;;;60.30;32.07;;;5.10;99.90;;;;;;5253030;28;20239;-71
2021/11/02 02:36:23;;;;;;;62.00;31.50;;;5.10;99.90;;;;;;5271347;28;20214;-71
2021/11/02 02:38:58;;;;;;;55.80;29.13;;;5.00;99.90;;;;;;5271485;28;20219;-70
2021/11/02 02:41:31;;;;;;;57.53;31.40;;;5.00;99.90;;;;;;5274286;28;20239;-71
2021/11/02 02:44:04;;;;;;;63.10;31.70;;;5.00;99.90;;;;;;5274517;28;20633;-70
2021/11/02 02:46:38;;;;;;;61.67;32.10;;;4.90;99.90;;;;;;5239887;28;20204;-73
2021/11/02 02:49:13;;;;;;;62.50;30.83;;;4.90;99.90;;;;;;5273922;28;20203;-73
2021/11/02 02:51:48;;;;;;;57.63;31.57;;;4.90;99.90;;;;;;5274585;28;20214;-71
2021/11/02 02:54:24;;;;;;;58.43;32.53;;;4.90;99.90;;;;;;5243880;28;20295;-70
2021/11/02 02:56:56;;;;;;;58.77;30.90;;;4.90;99.90;;;;;;5259664;28;20605;-71
2021/11/02 02:59:29;;;;;;;57.00;31.47;;;4.80;99.90;;;;;;5239535;28;20568;-69
2021/11/02 03:02:01;;;;;;;58.93;31.20;;;4.80;99.90;;;;;;5256496;28;20557;-71
2021/11/02 03:04:34;;;;;;;56.23;29.77;;;4.80;99.90;;;;;;5256208;28;20261;-69
2021/11/02 03:07:06;;;;;;;61.80;32.20;;;4.80;99.90;;;;;;5256019;28;20529;-71
2021/11/02 03:09:42;;;;;;;57.53;32.17;;;4.70;99.90;;;;;;5256083;28;20203;-70
2021/11/02 03:12:40;;;;;;;63.87;32.03;;;4.70;99.90;;;;;;5273800;28;20188;-71
2021/11/02 03:44:58;;;;;;;56.10;30.93;;;4.40;99.90;;;;;;5258305;28;20200;-72
2021/11/02 04:01:46;;;;;;;61.27;30.73;;;4.30;99.90;;;;;;5272634;28;20547;-70
2021/11/02 04:24:53;;;;;;;59.37;29.87;;;4.20;99.90;;;;;;5272883;28;20204;-70
2021/11/02 04:27:42;;;;;;;55.93;28.97;;;4.20;99.90;;;;;;5256731;28;20221;-72
2021/11/02 04:44:55;;;;;;;60.67;30.87;;;4.10;99.90;;;;;;5271874;28;20626;-72
2021/11/02 04:47:15;;;;;;;60.63;31.60;;;4.10;99.90;;;;;;5269452;28;20207;-73
2021/11/02 05:13:14;;;;;;;54.90;30.83;;;4.00;99.90;;;;;;5271306;28;20223;-75
2021/11/02 05:47:50;;;;;;;61.93;30.43;;;3.90;99.90;;;;;;5270492;28;20207;-71
2021/11/02 05:53:37;;;;;;;59.40;31.27;;;3.80;99.90;;;;;;5270756;28;20184;-72
2021/11/02 05:56:32;;;;;;;59.97;31.80;;;3.90;99.90;;;;;;5257146;28;20639;-70
2021/11/02 06:02:06;;;;;;;61.53;30.40;;;3.90;99.90;;;;;;5270580;28;20208;-73
2021/11/02 06:27:59;;;;;;;58.93;30.83;;;4.80;99.90;;;;;;5269866;28;20206;-76
2021/11/02 06:30:48;;;;;;;64.53;31.87;;;4.80;99.90;;;;;;5269911;28;20207;-71
2021/11/02 07:19:23;;;;;;;59.93;32.13;;;5.10;99.90;;;;;;5269844;28;20254;-70
2021/11/02 07:22:25;;;;;;;58.07;30.13;;;5.10;99.90;;;;;;5269019;28;20774;-70
2021/11/02 08:48:24;;;;;;;51.93;29.73;;;5.90;99.90;;;;;;5272727;28;20508;-69
2021/11/02 08:50:59;;;;;;;59.67;29.87;;;5.90;99.90;;;;;;5272419;28;20546;-68
2021/11/02 08:53:31;;;;;;;59.37;29.33;;;5.90;99.90;;;;;;5271609;28;20248;-71
2021/11/02 08:56:05;;;;;;;59.30;31.00;;;5.90;99.90;;;;;;5270880;28;20220;-70
2021/11/02 08:58:38;;;;;;;63.07;31.43;;;5.90;99.90;;;;;;5271450;28;20203;-70
2021/11/02 09:01:36;;;;;;;57.80;30.83;;;5.90;99.90;;;;;;5270785;28;20227;-72
2021/11/02 09:04:10;;;;;;;54.77;29.47;;;6.00;99.90;;;;;;5270822;28;20250;-69
2021/11/02 09:06:50;;;;;;;60.70;31.73;;;6.00;99.90;;;;;;5252943;28;20196;-73
2021/11/02 09:09:21;;;;;;;59.77;30.30;;;6.00;99.90;;;;;;5271265;28;20515;-68
2021/11/02 09:11:55;;;;;;;57.20;31.50;;;6.10;99.90;;;;;;5271094;28;20220;-70
2021/11/02 09:14:31;;;;;;;55.13;30.87;;;6.10;99.90;;;;;;5260750;28;20200;-71
2021/11/02 09:17:06;;;;;;;58.50;30.90;;;6.10;99.90;;;;;;5270454;28;20235;-70
2021/11/02 09:19:39;;;;;;;56.10;31.63;;;6.20;99.90;;;;;;5270324;28;20404;-69
2021/11/02 09:22:13;;;;;;;66.03;31.90;;;6.20;99.90;;;;;;5270398;28;20227;-71
2021/11/02 09:24:45;;;;;;;55.10;30.97;;;6.20;99.90;;;;;;5270613;28;20266;-70
2021/11/02 09:27:23;;;;;;;60.03;31.00;;;6.20;99.90;;;;;;5463628;22;20228;31
2021/11/02 09:29:56;;;;;;;58.87;30.77;;;6.30;99.90;;;;;;5229268;28;20225;-69
2021/11/02 09:32:29;;;;;;;56.57;30.30;;;6.30;99.90;;;;;;5235757;28;20221;-72
2021/11/02 09:35:02;;;;;;;61.03;32.63;;;6.40;99.90;;;;;;5202804;28;20229;-71
2021/11/02 09:37:40;;;;;;;57.37;32.57;;;6.50;99.90;;;;;;5214631;28;20229;-70
2021/11/02 09:40:51;;;;;;;57.60;32.73;;;6.50;99.90;;;;;;5229479;28;20190;-70
2021/11/02 09:43:29;;;;;;;61.97;31.30;;;6.60;99.90;;;;;;5239214;28;20250;-71
2021/11/02 09:46:08;;;;;;;64.00;33.37;;;6.60;99.90;;;;;;5237454;28;20222;-71
2021/11/02 09:49:27;;;;;;;59.30;31.93;;;6.60;99.90;;;;;;5228960;28;20649;-70
2021/11/02 09:52:22;;;;;;;60.00;31.10;;;6.60;99.90;;;;;;5209132;28;20238;-68
2021/11/02 09:55:19;;;;;;;61.23;31.97;;;6.50;99.90;;;;;;5228886;28;20209;-73
2021/11/02 09:58:14;;;;;;;57.10;32.53;;;6.50;99.90;;;;;;5206640;28;20198;-72
2021/11/02 10:01:05;;;;;;;57.70;31.93;;;6.50;99.90;;;;;;5228269;28;20277;-69
2021/11/02 10:03:55;;;;;;;61.10;33.20;;;6.50;99.90;;;;;;5228375;28;20233;-72
2021/11/02 10:06:52;;;;;;;63.63;34.00;;;6.40;99.90;;;;;;5229065;28;20186;-70
2021/11/02 10:09:59;;;;;;;60.67;33.67;;;6.40;99.90;;;;;;5228644;28;20233;-69
2021/11/02 10:12:50;;;;;;;65.27;39.47;;;6.30;99.90;;;;;;5208500;28;20464;-71
2021/11/02 10:15:45;;;;;;;66.53;35.03;;;6.30;99.90;;;;;;5228707;28;20201;-69
2021/11/02 10:18:40;;;;;;;67.03;34.93;;;6.30;99.90;;;;;;5233594;28;20235;-70
2021/11/02 10:22:05;;;;;;;63.77;33.93;;;6.30;99.90;;;;;;5211141;28;20284;-73
2021/11/02 10:24:46;;;;;;;61.40;34.50;;;6.20;99.90;;;;;;5157570;28;20213;-73
2021/11/02 10:27:39;;;;;;;62.67;34.60;;;6.20;99.90;;;;;;5211237;28;20235;-71
2021/11/02 10:30:49;;;;;;;67.50;37.00;;;6.20;99.90;;;;;;5164938;28;20234;-73
2021/11/02 10:33:42;;;;;;;68.67;35.90;;;6.20;99.90;;;;;;5233367;28;20266;-69
2021/11/02 10:36:17;;;;;;;66.97;34.70;;;6.10;99.90;;;;;;5163871;28;20207;-71
2021/11/02 10:38:57;;;;;;;70.33;37.27;;;6.20;99.90;;;;;;5251756;28;20214;-70
2021/11/02 10:41:35;;;;;;;70.33;37.73;;;6.20;99.90;;;;;;5218484;28;20303;-69
2021/11/02 10:44:20;;;;;;;66.47;36.83;;;6.20;99.90;;;;;;5227712;28;20246;-71
2021/11/02 10:47:04;;;;;;;68.67;37.03;;;6.20;99.90;;;;;;5163798;28;20214;-71
2021/11/02 10:50:05;;;;;;;70.20;36.57;;;6.10;99.90;;;;;;5164060;28;20231;-68
2021/11/02 10:52:39;;;;;;;74.60;37.80;;;6.20;99.90;;;;;;5223676;28;20195;-72
2021/11/02 10:55:24;;;;;;;68.10;36.57;;;6.10;99.90;;;;;;5222838;28;20313;-68
2021/11/02 10:58:11;;;;;;;70.40;36.57;;;6.10;99.90;;;;;;5160043;28;20212;-69
2021/11/02 11:00:47;;;;;;;81.20;42.13;;;6.10;99.90;;;;;;5166197;28;20223;-60
2021/11/02 11:03:30;;;;;;;83.30;42.17;;;6.10;99.90;;;;;;5233891;28;20234;-63
2021/11/02 11:06:14;;;;;;;75.00;39.43;;;6.20;99.90;;;;;;5167097;28;20250;-66
2021/11/02 11:08:48;;;;;;;80.93;40.27;;;6.20;99.90;;;;;;5159662;28;20192;-64
2021/11/02 11:11:27;;;;;;;72.30;38.47;;;6.30;99.90;;;;;;5166565;28;20223;-63
2021/11/02 11:14:08;;;;;;;76.47;38.97;;;6.30;99.90;;;;;;5233512;28;20512;-63
2021/11/02 11:16:46;;;;;;;74.90;38.33;;;6.30;99.90;;;;;;5167730;28;20230;-59
2021/11/02 11:19:27;;;;;;;82.90;42.23;;;6.40;99.90;;;;;;5186997;28;20204;-62
2021/11/02 11:22:00;;;;;;;78.83;39.97;;;6.40;99.90;;;;;;5234229;28;20611;-64
2021/11/02 11:25:01;;;;;;;79.83;40.30;;;6.50;99.90;;;;;;5166762;28;20648;-63
2021/11/02 11:27:35;;;;;;;75.93;41.13;;;6.50;99.90;;;;;;5161075;28;20195;-59
2021/11/02 11:30:11;;;;;;;77.53;41.17;;;6.50;99.90;;;;;;5166598;28;20203;-63
2021/11/02 11:32:45;;;;;;;84.77;42.13;;;6.50;99.90;;;;;;5166766;28;20214;-61
2021/11/02 11:35:17;;;;;;;88.20;44.33;;;6.60;99.90;;;;;;5166704;28;20215;-65
2021/11/02 11:37:53;;;;;;;84.10;44.10;;;6.70;99.90;;;;;;5166866;28;20204;-64
2021/11/02 11:40:25;;;;;;;84.60;43.50;;;6.70;99.90;;;;;;5166933;28;20249;-67
2021/11/02 11:43:00;;;;;;;84.53;42.70;;;6.70;99.90;;;;;;5166275;28;20219;-63
2021/11/02 11:45:38;;;;;;;73.83;40.33;;;6.70;99.90;;;;;;5166341;28;20210;-63
2021/11/02 11:48:20;;;;;;;74.10;40.17;;;6.70;99.90;;;;;;5166459;28;20307;-63
2021/11/02 11:51:01;;;;;;;81.10;41.00;;;6.70;99.90;;;;;;5166561;28;20218;-65
2021/11/02 11:53:38;;;;;;;78.40;42.47;;;6.70;99.90;;;;;;5165978;28;20316;-62
2021/11/02 11:56:15;;;;;;;90.18;52.50;;;6.70;99.90;;;;;;5231772;28;20426;-62
2021/11/02 11:58:53;;;;;;;82.07;43.77;;;6.70;99.90;;;;;;5166053;28;20199;-65
2021/11/02 12:01:31;;;;;;;79.73;42.27;;;6.70;99.90;;;;;;5166768;28;20208;-69
2021/11/02 12:04:49;;;;;;;79.83;41.63;;;6.70;99.90;;;;;;5168896;28;20226;-69
2021/11/02 12:07:55;;;;;;;81.20;42.40;;;6.60;99.90;;;;;;5166207;28;20211;-68
2021/11/02 12:10:28;;;;;;;81.47;41.97;;;6.60;99.90;;;;;;5223321;28;20207;-67
2021/11/02 12:13:12;;;;;;;77.13;40.57;;;6.60;99.90;;;;;;5165792;28;20616;-66
2021/11/02 12:15:48;;;;;;;78.17;41.40;;;6.50;99.90;;;;;;5161001;28;20526;-68
2021/11/02 12:18:27;;;;;;;87.10;41.83;;;6.50;99.90;;;;;;5166183;28;20223;-67
2021/11/02 12:20:59;;;;;;;82.13;41.33;;;6.50;99.90;;;;;;5165935;28;20654;-68
2021/11/02 12:23:42;;;;;;;85.03;42.93;;;6.50;99.90;;;;;;5165714;28;20247;-69
2021/11/02 12:26:14;;;;;;;86.07;43.67;;;6.50;99.90;;;;;;5177486;28;20200;-69
2021/11/02 12:28:50;;;;;;;80.67;43.43;;;6.50;99.90;;;;;;5233318;28;20231;-68
2021/11/02 12:31:27;;;;;;;84.87;44.30;;;6.50;99.90;;;;;;5218063;28;20254;-68
2021/11/02 12:34:11;;;;;;;80.77;43.80;;;6.50;99.90;;;;;;5166494;28;20231;-69
2021/11/02 12:36:48;;;;;;;82.03;41.90;;;6.50;99.90;;;;;;5166042;28;20200;-71
2021/11/02 12:39:27;;;;;;;86.10;43.50;;;6.50;99.90;;;;;;5232320;28;20748;-70
2021/11/02 12:42:00;;;;;;;88.07;45.43;;;6.50;99.90;;;;;;5166107;28;20658;-69
2021/11/02 12:44:36;;;;;;;91.10;46.57;;;6.50;99.90;;;;;;5231845;28;20235;-68
2021/11/02 12:47:15;;;;;;;96.33;47.03;;;6.40;99.90;;;;;;5165343;28;20549;-70
2021/11/02 12:49:48;;;;;;;88.07;46.23;;;6.40;99.90;;;;;;5165987;28;20654;-68
2021/11/02 12:52:25;;;;;;;89.07;46.13;;;6.50;99.90;;;;;;5232563;28;20206;-68
2021/11/02 12:55:01;;;;;;;89.43;46.87;;;6.40;99.90;;;;;;5232351;28;20637;-68
2021/11/02 12:57:44;;;;;;;88.20;46.80;;;6.40;99.90;;;;;;5158428;28;20195;-72
2021/11/02 13:00:21;;;;;;;92.10;46.53;;;6.50;99.90;;;;;;5165471;28;20562;-67
2021/11/02 13:03:02;;;;;;;97.17;48.37;;;6.50;99.90;;;;;;5165063;28;20215;-67
2021/11/02 13:05:35;;;;;;;88.30;45.03;;;6.40;99.90;;;;;;5165309;28;20219;-69
2021/11/02 13:08:13;;;;;;;94.70;47.93;;;6.50;99.90;;;;;;5165128;28;20203;-70
2021/11/02 13:10:48;;;;;;;94.37;46.90;;;6.40;99.90;;;;;;5165468;28;20220;-68
2021/11/02 13:13:22;;;;;;;97.33;48.37;;;6.40;99.90;;;;;;5233340;28;20213;-69
2021/11/02 13:15:56;;;;;;;88.73;47.40;;;6.40;99.90;;;;;;5167051;28;20234;-68
2021/11/02 13:18:38;;;;;;;95.20;47.30;;;6.40;99.90;;;;;;5157246;28;20196;-70
2021/11/02 13:21:22;;;;;;;95.50;47.63;;;6.40;99.90;;;;;;5167107;28;20228;-67
2021/11/02 13:24:06;;;;;;;95.23;48.77;;;6.40;99.90;;;;;;5173049;28;20247;-68
2021/11/02 13:26:44;;;;;;;92.63;47.93;;;6.50;99.90;;;;;;5162344;28;20216;-53
2021/11/02 13:29:27;;;;;;;97.47;49.27;;;6.50;99.90;;;;;;5164632;28;20242;-56
2021/11/02 13:32:10;;;;;;;97.03;46.43;;;6.50;99.90;;;;;;5165080;28;20219;-67
2021/11/02 13:34:42;;;;;;;96.33;47.53;;;6.50;99.90;;;;;;5165727;28;20217;-68
2021/11/02 13:37:15;;;;;;;102.47;48.70;;;6.50;99.90;;;;;;5169078;28;20242;-68
2021/11/02 13:39:54;;;;;;;97.93;48.80;;;6.50;99.90;;;;;;5164760;28;20635;-68
2021/11/02 13:42:46;;;;;;;95.67;49.33;;;6.50;99.90;;;;;;5147540;28;20246;-67
2021/11/02 13:45:22;;;;;;;100.57;50.27;;;6.60;99.90;;;;;;5161919;28;20206;-69
2021/11/02 13:47:58;;;;;;;91.57;47.60;;;6.60;99.90;;;;;;5189179;28;20219;-72
2021/11/02 13:50:33;;;;;;;100.10;49.83;;;6.60;99.90;;;;;;5181718;28;20352;-69
2021/11/02 13:53:06;;;;;;;102.73;51.63;;;6.60;99.90;;;;;;5248159;28;20237;-69
2021/11/02 13:55:38;;;;;;;98.17;49.97;;;6.60;99.90;;;;;;5164714;28;20208;-68
2021/11/02 13:58:10;;;;;;;106.37;51.03;;;6.60;99.90;;;;;;5164883;28;20692;-69
2021/11/02 14:00:43;;;;;;;102.10;51.20;;;6.60;99.90;;;;;;5232569;28;20513;-69
2021/11/02 14:03:24;;;;;;;105.73;53.17;;;6.60;99.90;;;;;;5230036;28;20251;-68
2021/11/02 14:05:57;;;;;;;101.90;50.70;;;6.60;99.90;;;;;;5175258;28;20194;-69
2021/11/02 14:08:30;;;;;;;115.13;52.57;;;6.60;99.90;;;;;;5164109;28;20260;-69
2021/11/02 14:11:02;;;;;;;110.33;54.27;;;6.60;99.90;;;;;;5247509;28;20235;-71
2021/11/02 14:13:47;;;;;;;105.90;53.27;;;6.60;99.90;;;;;;5164166;28;20232;-70
2021/11/02 14:16:50;;;;;;;113.23;54.23;;;6.60;99.90;;;;;;5231624;28;20203;-71
2021/11/02 14:19:36;;;;;;;111.43;54.53;;;6.60;99.90;;;;;;5231681;28;20242;-74
2021/11/02 14:22:10;;;;;;;111.57;53.13;;;6.60;99.90;;;;;;5182495;28;20206;-70
2021/11/02 14:24:46;;;;;;;107.97;54.13;;;6.60;99.90;;;;;;5184678;28;20669;-71
2021/11/02 14:27:42;;;;;;;113.00;54.40;;;6.60;99.90;;;;;;5235016;28;20207;-72
2021/11/02 14:30:35;;;;;;;107.63;52.47;;;6.60;99.90;;;;;;5176212;28;20349;-69
2021/11/02 14:33:42;;;;;;;110.10;52.50;;;6.60;99.90;;;;;;5149423;28;20239;-70
2021/11/02 14:36:15;;;;;;;105.40;51.97;;;6.60;99.90;;;;;;5138531;28;20231;-71
2021/11/02 14:38:48;;;;;;;105.53;51.63;;;6.60;99.90;;;;;;5170993;28;20223;-71
2021/11/02 14:41:30;;;;;;;114.77;57.37;;;6.60;99.90;;;;;;5167884;28;20210;-71
2021/11/02 14:44:18;;;;;;;116.33;59.37;;;6.70;99.90;;;;;;5167517;28;20243;-73
2021/11/02 14:46:52;;;;;;;111.87;55.40;;;6.70;99.90;;;;;;5171747;28;20204;-69
2021/11/02 14:49:30;;;;;;;107.73;53.47;;;6.70;99.90;;;;;;5160120;28;20310;-70
2021/11/02 14:52:07;;;;;;;102.60;51.97;;;6.70;99.90;;;;;;5167343;28;20199;-70
2021/11/02 14:54:45;;;;;;;106.67;53.83;;;6.70;99.90;;;;;;5167431;28;20234;-74
2021/11/02 14:57:20;;;;;;;105.37;52.33;;;6.70;99.90;;;;;;5167025;28;20295;-71
2021/11/02 14:59:57;;;;;;;108.50;52.70;;;6.70;99.90;;;;;;5168342;28;20605;-71
2021/11/02 15:02:43;;;;;;;102.87;49.43;;;6.70;99.90;;;;;;5167692;28;20217;-72
2021/11/02 15:05:20;;;;;;;101.57;50.57;;;6.70;99.90;;;;;;5167305;28;20310;-73
2021/11/02 15:07:53;;;;;;;106.67;52.33;;;6.80;99.90;;;;;;5168079;28;20565;-71
2021/11/02 15:10:30;;;;;;;109.70;54.07;;;6.80;99.90;;;;;;5150380;28;20314;-72
2021/11/02 15:13:02;;;;;;;102.43;51.53;;;6.80;99.90;;;;;;5135609;28;20599;-68
2021/11/02 15:15:34;;;;;;;102.07;50.83;;;6.80;99.90;;;;;;5196463;28;20231;-71
2021/11/02 15:18:11;;;;;;;105.37;51.30;;;6.80;99.90;;;;;;5156209;28;20217;-70
2021/11/02 15:20:43;;;;;;;108.73;52.30;;;6.80;99.90;;;;;;5188436;28;20329;-67
2021/11/02 15:23:16;;;;;;;108.07;52.67;;;6.80;99.90;;;;;;5153939;28;20229;-74
2021/11/02 15:25:57;;;;;;;108.80;52.77;;;6.80;99.90;;;;;;5167073;28;20274;-74
2021/11/02 15:28:29;;;;;;;109.50;54.63;;;6.90;99.90;;;;;;5166439;28;20517;-73
2021/11/02 15:31:03;;;;;;;109.20;54.63;;;6.80;99.90;;;;;;5233112;28;20224;-71
2021/11/02 15:33:39;;;;;;;105.30;51.90;;;6.90;99.90;;;;;;5221832;28;20206;-77
2021/11/02 15:36:29;;;;;;;113.27;53.43;;;6.80;99.90;;;;;;5243418;28;20233;-73
2021/11/02 15:39:06;;;;;;;116.30;55.00;;;6.90;99.90;;;;;;5233551;28;20333;-74
2021/11/02 15:41:38;;;;;;;119.13;58.00;;;6.90;99.90;;;;;;5166237;28;20227;-70
2021/11/02 15:44:15;;;;;;;117.03;54.00;;;6.90;99.90;;;;;;5165960;28;20583;-70
2021/11/02 15:46:47;;;;;;;118.23;57.70;;;6.90;99.90;;;;;;5164957;28;20227;-72
2021/11/02 15:49:22;;;;;;;124.33;58.97;;;6.90;99.90;;;;;;5233261;28;20611;-71
2021/11/02 15:52:03;;;;;;;116.80;56.63;;;6.90;99.90;;;;;;5166404;28;20220;-70
2021/11/02 15:54:45;;;;;;;109.90;54.60;;;6.90;99.90;;;;;;5166806;28;20203;-71
2021/11/02 15:57:19;;;;;;;113.97;56.20;;;6.90;99.90;;;;;;5239204;28;20219;-75
2021/11/02 16:00:03;;;;;;;111.70;55.80;;;6.90;99.90;;;;;;5235609;28;20291;-70
2021/11/02 16:02:40;;;;;;;111.53;53.87;;;6.90;99.90;;;;;;5179553;28;20246;-70
2021/11/02 16:05:25;;;;;;;115.70;54.33;;;6.90;99.90;;;;;;5188702;28;20210;-70
2021/11/02 16:08:02;;;;;;;115.03;52.33;;;6.90;99.90;;;;;;5244449;28;20198;-72
2021/11/02 16:10:35;;;;;;;103.30;51.30;;;6.90;99.90;;;;;;5167210;28;20310;-74
2021/11/02 16:13:11;;;;;;;106.87;50.83;;;6.90;99.90;;;;;;5232891;28;20223;-72
2021/11/02 16:15:43;;;;;;;120.73;57.83;;;6.90;99.90;;;;;;5164830;28;20647;-70
2021/11/02 16:18:17;;;;;;;109.20;53.03;;;6.90;99.90;;;;;;5229873;28;20228;-70
2021/11/02 16:20:52;;;;;;;111.47;52.77;;;6.90;99.90;;;;;;5164281;28;20204;-68
2021/11/02 16:23:37;;;;;;;102.57;49.53;;;6.90;99.90;;;;;;5165384;28;20231;-68
2021/11/02 16:26:18;;;;;;;103.00;50.57;;;6.90;99.90;;;;;;5233246;28;20200;-71
2021/11/02 16:28:51;;;;;;;103.13;51.60;;;6.90;99.90;;;;;;5215032;28;20232;-70
2021/11/02 16:31:28;;;;;;;112.70;52.40;;;6.90;99.90;;;;;;5233976;28;20209;-70
2021/11/02 16:34:14;;;;;;;105.57;52.07;;;6.90;99.90;;;;;;5251170;28;20664;-73
2021/11/02 16:36:47;;;;;;;102.73;50.90;;;6.90;99.90;;;;;;5217472;28;20205;-72
2021/11/02 16:39:21;;;;;;;100.13;49.93;;;6.90;99.90;;;;;;5233339;28;20208;-69
2021/11/02 16:42:03;;;;;;;99.80;48.83;;;6.90;99.90;;;;;;5233847;28;20605;-71
2021/11/02 16:44:40;;;;;;;97.93;49.43;;;6.90;99.90;;;;;;5249367;28;20228;-72
2021/11/02 16:47:15;;;;;;;104.27;49.63;;;6.90;99.90;;;;;;5248259;28;20507;-69
2021/11/02 16:49:47;;;;;;;101.57;48.27;;;6.90;99.90;;;;;;5248859;28;20204;-70
2021/11/02 16:52:28;;;;;;;97.53;50.10;;;6.90;99.90;;;;;;5221797;28;20224;-70
2021/11/02 16:55:14;;;;;;;99.90;48.23;;;6.90;99.90;;;;;;5233578;28;20240;-70
2021/11/02 16:57:47;;;;;;;101.77;47.20;;;6.90;99.90;;;;;;5254890;28;20209;-68
2021/11/02 17:00:28;;;;;;;107.20;51.90;;;6.90;99.90;;;;;;5222190;28;20201;-73
2021/11/02 17:03:09;;;;;;;99.47;50.23;;;6.90;99.90;;;;;;5273668;28;20204;-72
2021/11/02 17:05:46;;;;;;;100.40;49.47;;;6.90;99.90;;;;;;5254922;28;20199;-73
2021/11/02 17:08:18;;;;;;;95.50;48.20;;;6.90;99.90;;;;;;5271860;28;20196;-74
2021/11/02 17:10:55;;;;;;;96.50;47.43;;;6.90;99.90;;;;;;5236962;28;20228;-72
2021/11/02 17:13:35;;;;;;;99.47;48.13;;;6.90;99.90;;;;;;5271208;28;20196;-71
2021/11/02 17:16:18;;;;;;;98.77;47.97;;;6.90;99.90;;;;;;5271495;28;20192;-75
2021/11/02 17:19:00;;;;;;;93.93;48.97;;;6.90;99.90;;;;;;5271019;28;20195;-70
2021/11/02 17:21:36;;;;;;;99.87;47.37;;;6.90;99.90;;;;;;5271328;28;20215;-70
2021/11/02 17:24:08;;;;;;;90.87;47.50;;;6.90;99.90;;;;;;5253073;28;20238;-70
2021/11/02 17:26:41;;;;;;;91.57;48.73;;;6.90;99.90;;;;;;5271213;28;20200;-73
2021/11/02 17:29:13;;;;;;;103.50;52.33;;;6.90;99.90;;;;;;5263627;28;20224;-71
2021/11/02 17:31:46;;;;;;;104.93;55.27;;;6.90;99.90;;;;;;5270150;28;20196;-73
2021/11/02 17:34:23;;;;;;;92.83;47.70;;;6.90;99.90;;;;;;5270950;28;20210;-73
2021/11/02 17:36:58;;;;;;;82.77;44.50;;;6.90;99.90;;;;;;5270989;28;20211;-71
2021/11/02 17:39:34;;;;;;;86.63;45.00;;;6.90;99.90;;;;;;5270270;28;20341;-71
2021/11/02 17:42:11;;;;;;;83.70;43.47;;;6.90;99.90;;;;;;5271400;28;20219;-73
2021/11/02 17:44:47;;;;;;;81.80;42.90;;;6.90;99.90;;;;;;5270748;28;20232;-73
2021/11/02 17:47:19;;;;;;;82.23;43.03;;;6.90;99.90;;;;;;5270900;28;20215;-71
2021/11/02 17:49:54;;;;;;;83.90;43.90;;;6.80;99.90;;;;;;5272389;28;20201;-71
2021/11/02 17:52:26;;;;;;;87.23;44.57;;;6.80;99.90;;;;;;5238307;28;20234;-68
2021/11/02 17:55:01;;;;;;;78.57;41.30;;;6.80;99.90;;;;;;5249622;28;20205;-73
2021/11/02 17:57:38;;;;;;;77.97;41.00;;;6.80;99.90;;;;;;5251680;28;20299;-70
2021/11/02 18:00:12;;;;;;;77.77;41.57;;;6.80;99.90;;;;;;5252166;28;20215;-74
2021/11/02 18:02:48;;;;;;;81.87;41.13;;;6.80;99.90;;;;;;5244314;28;20197;-70
2021/11/02 18:05:25;;;;;;;75.87;40.03;;;6.80;99.90;;;;;;5250085;28;20302;-73
2021/11/02 18:08:05;;;;;;;80.83;41.50;;;6.80;99.90;;;;;;5249354;28;20196;-72
2021/11/02 18:10:37;;;;;;;76.33;40.80;;;6.80;99.90;;;;;;5244057;28;20197;-72
2021/11/02 18:13:12;;;;;;;79.77;39.83;;;6.80;99.90;;;;;;5227763;28;20209;-69
2021/11/02 18:15:45;;;;;;;79.30;40.90;;;6.80;99.90;;;;;;5227665;28;20209;-73
2021/11/02 18:18:19;;;;;;;79.73;42.13;;;6.80;99.90;;;;;;5228574;28;20201;-70
2021/11/02 18:20:54;;;;;;;88.43;43.57;;;6.80;99.90;;;;;;5255009;28;20200;-70
2021/11/02 18:23:27;;;;;;;80.63;42.13;;;6.90;99.90;;;;;;5256621;28;20199;-71
2021/11/02 18:25:59;;;;;;;93.57;45.43;;;6.80;99.90;;;;;;5247914;28;20262;-72